sensor_id;sensor_type;location;lat;lon;timestamp;pressure;altitude;pressure_sealevel;temperature;humidity
4767;BME280;2397;53.576;9.746;2022-12-24T00:01:31;100370.28;;;4.45;100.00
4767;BME280;2397;53.576;9.746;2022-12-24T00:03:58;100379.78;;;4.47;100.00
4767;BME280;2397;53.576;9.746;2022-12-24T00:06:24;100384.13;;;4.50;100.00
4767;BME280;2397;53.576;9.746;2022-12-24T00:08:51;100385.69;;;4.45;100.00
4767;BME280;2397;53.576;9.746;2022-12-24T00:11:19;100390.94;;;4.49;100.00
4767;BME280;2397;53.576;9.746;2022-12-24T00:13:46;100385.78;;;4.48;100.00
4767;BME280;2397;53.576;9.746;2022-12-24T00:16:13;100389.06;;;4.44;100.00
4767;BME280;2397;53.576;9.746;2022-12-24T00:18:39;100388.81;;;4.36;100.00
4767;BME280;2397;53.576;9.746;2022-12-24T00:21:11;100392.50;;;4.44;100.00
4767;BME280;2397;53.576;9.746;2022-12-24T00:23:39;100396.69;;;4.42;100.00
4767;BME280;2397;53.576;9.746;2022-12-24T00:26:05;100396.59;;;4.39;100.00
4767;BME280;2397;53.576;9.746;2022-12-24T00:28:32;100394.94;;;4.41;100.00
4767;BME280;2397;53.576;9.746;2022-12-24T00:30:58;100400.19;;;4.44;100.00
4767;BME280;2397;53.576;9.746;2022-12-24T00:33:24;100402.53;;;4.38;100.00
4767;BME280;2397;53.576;9.746;2022-12-24T00:35:51;100400.91;;;4.40;100.00
4767;BME280;2397;53.576;9.746;2022-12-24T00:38:18;100399.88;;;4.35;100.00
4767;BME280;2397;53.576;9.746;2022-12-24T00:40:45;100400.84;;;4.38;100.00
4767;BME280;2397;53.576;9.746;2022-12-24T00:43:11;100391.47;;;4.39;100.00
4767;BME280;2397;53.576;9.746;2022-12-24T00:45:38;100405.19;;;4.41;100.00
4767;BME280;2397;53.576;9.746;2022-12-24T00:48:05;100403.38;;;4.37;100.00
4767;BME280;2397;53.576;9.746;2022-12-24T00:50:31;100395.72;;;4.38;100.00
4767;BME280;2397;53.576;9.746;2022-12-24T00:52:57;100399.78;;;4.32;100.00
4767;BME280;2397;53.576;9.746;2022-12-24T00:55:24;100404.69;;;4.26;100.00
4767;BME280;2397;53.576;9.746;2022-12-24T00:57:50;100408.22;;;4.29;100.00
4767;BME280;2397;53.576;9.746;2022-12-24T01:00:17;100402.28;;;4.30;100.00
4767;BME280;2397;53.576;9.746;2022-12-24T01:02:43;100406.66;;;4.33;100.00
4767;BME280;2397;53.576;9.746;2022-12-24T01:05:11;100409.25;;;4.34;100.00
4767;BME280;2397;53.576;9.746;2022-12-24T01:07:41;100411.16;;;4.40;100.00
4767;BME280;2397;53.576;9.746;2022-12-24T01:10:11;100413.72;;;4.40;100.00
4767;BME280;2397;53.576;9.746;2022-12-24T01:12:38;100414.53;;;4.39;100.00
4767;BME280;2397;53.576;9.746;2022-12-24T01:15:05;100418.69;;;4.35;100.00
4767;BME280;2397;53.576;9.746;2022-12-24T01:17:33;100421.34;;;4.38;100.00
4767;BME280;2397;53.576;9.746;2022-12-24T01:19:59;100425.59;;;4.38;100.00
4767;BME280;2397;53.576;9.746;2022-12-24T01:22:26;100419.47;;;4.33;100.00
4767;BME280;2397;53.576;9.746;2022-12-24T01:24:53;100411.72;;;4.31;100.00
4767;BME280;2397;53.576;9.746;2022-12-24T01:27:19;100425.50;;;4.35;100.00
4767;BME280;2397;53.576;9.746;2022-12-24T01:29:46;100426.38;;;4.35;100.00
4767;BME280;2397;53.576;9.746;2022-12-24T01:32:12;100427.19;;;4.34;100.00
4767;BME280;2397;53.576;9.746;2022-12-24T01:34:39;100427.16;;;4.33;100.00
4767;BME280;2397;53.576;9.746;2022-12-24T01:37:05;100427.19;;;4.34;100.00
4767;BME280;2397;53.576;9.746;2022-12-24T01:39:32;100422.78;;;4.30;100.00
4767;BME280;2397;53.576;9.746;2022-12-24T01:41:58;100431.50;;;4.35;100.00
4767;BME280;2397;53.576;9.746;2022-12-24T01:44:47;100428.06;;;4.35;100.00
4767;BME280;2397;53.576;9.746;2022-12-24T01:47:21;100434.78;;;4.31;100.00
4767;BME280;2397;53.576;9.746;2022-12-24T01:49:54;100444.13;;;4.31;100.00
4767;BME280;2397;53.576;9.746;2022-12-24T01:52:28;100437.25;;;4.28;100.00
4767;BME280;2397;53.576;9.746;2022-12-24T01:55:04;100441.53;;;4.29;100.00
4767;BME280;2397;53.576;9.746;2022-12-24T01:57:44;100440.66;;;4.29;100.00
4767;BME280;2397;53.576;9.746;2022-12-24T02:00:14;100451.00;;;4.32;100.00
4767;BME280;2397;53.576;9.746;2022-12-24T02:02:43;100448.25;;;4.26;100.00
4767;BME280;2397;53.576;9.746;2022-12-24T02:05:18;100452.34;;;4.20;100.00
4767;BME280;2397;53.576;9.746;2022-12-24T02:07:49;100446.25;;;4.17;100.00
4767;BME280;2397;53.576;9.746;2022-12-24T02:10:16;100457.59;;;4.24;100.00
4767;BME280;2397;53.576;9.746;2022-12-24T02:12:44;100455.69;;;4.18;100.00
4767;BME280;2397;53.576;9.746;2022-12-24T02:15:14;100453.16;;;4.19;100.00
4767;BME280;2397;53.576;9.746;2022-12-24T02:23:56;100464.31;;;4.21;100.00
4767;BME280;2397;53.576;9.746;2022-12-24T02:26:59;100469.75;;;4.31;100.00
4767;BME280;2397;53.576;9.746;2022-12-24T02:38:07;100460.25;;;4.27;100.00
4767;BME280;2397;53.576;9.746;2022-12-24T02:40:42;100469.75;;;4.31;100.00
4767;BME280;2397;53.576;9.746;2022-12-24T02:43:15;100475.72;;;4.30;100.00
4767;BME280;2397;53.576;9.746;2022-12-24T02:45:45;100477.34;;;4.28;100.00
4767;BME280;2397;53.576;9.746;2022-12-24T02:48:19;100477.28;;;4.26;100.00
4767;BME280;2397;53.576;9.746;2022-12-24T02:50:55;100470.44;;;4.25;100.00
4767;BME280;2397;53.576;9.746;2022-12-24T02:53:21;100484.28;;;4.30;100.00
4767;BME280;2397;53.576;9.746;2022-12-24T03:01:53;100491.25;;;4.34;100.00
4767;BME280;2397;53.576;9.746;2022-12-24T03:04:34;100491.31;;;4.36;100.00
4767;BME280;2397;53.576;9.746;2022-12-24T03:10:26;100487.84;;;4.34;100.00
4767;BME280;2397;53.576;9.746;2022-12-24T03:13:01;100488.75;;;4.36;100.00
4767;BME280;2397;53.576;9.746;2022-12-24T03:15:30;100494.72;;;4.36;100.00
4767;BME280;2397;53.576;9.746;2022-12-24T03:18:00;100494.69;;;4.35;100.00
4767;BME280;2397;53.576;9.746;2022-12-24T03:20:34;100499.91;;;4.38;100.00
4767;BME280;2397;53.576;9.746;2022-12-24T03:23:02;100506.75;;;4.37;100.00
4767;BME280;2397;53.576;9.746;2022-12-24T03:25:30;100495.56;;;4.35;100.00
4767;BME280;2397;53.576;9.746;2022-12-24T03:28:01;100497.44;;;4.41;100.00
4767;BME280;2397;53.576;9.746;2022-12-24T03:30:28;100512.78;;;4.39;100.00
4767;BME280;2397;53.576;9.746;2022-12-24T03:32:54;100504.94;;;4.35;100.00
4767;BME280;2397;53.576;9.746;2022-12-24T03:35:21;100516.13;;;4.37;100.00
4767;BME280;2397;53.576;9.746;2022-12-24T03:37:47;100509.25;;;4.36;100.00
4767;BME280;2397;53.576;9.746;2022-12-24T03:40:14;100518.69;;;4.37;100.00
4767;BME280;2397;53.576;9.746;2022-12-24T03:42:40;100519.59;;;4.39;100.00
4767;BME280;2397;53.576;9.746;2022-12-24T03:45:07;100521.91;;;4.31;100.00
4767;BME280;2397;53.576;9.746;2022-12-24T03:47:33;100519.44;;;4.34;100.00
4767;BME280;2397;53.576;9.746;2022-12-24T03:50:00;100523.75;;;4.35;100.00
4767;BME280;2397;53.576;9.746;2022-12-24T03:52:27;100520.09;;;4.29;100.00
4767;BME280;2397;53.576;9.746;2022-12-24T03:54:53;100529.66;;;4.33;100.00
4767;BME280;2397;53.576;9.746;2022-12-24T03:57:19;100534.72;;;4.31;100.00
4767;BME280;2397;53.576;9.746;2022-12-24T03:59:46;100533.13;;;4.35;100.00
4767;BME280;2397;53.576;9.746;2022-12-24T04:02:12;100536.38;;;4.31;100.00
4767;BME280;2397;53.576;9.746;2022-12-24T04:04:39;100541.59;;;4.32;100.00
4767;BME280;2397;53.576;9.746;2022-12-24T04:07:05;100551.75;;;4.31;100.00
4767;BME280;2397;53.576;9.746;2022-12-24T04:09:32;100558.53;;;4.29;100.00
4767;BME280;2397;53.576;9.746;2022-12-24T04:11:59;100553.41;;;4.29;100.00
4767;BME280;2397;53.576;9.746;2022-12-24T04:14:25;100559.38;;;4.29;100.00
4767;BME280;2397;53.576;9.746;2022-12-24T04:16:51;100558.69;;;4.33;100.00
4767;BME280;2397;53.576;9.746;2022-12-24T04:19:18;100555.28;;;4.33;100.00
4767;BME280;2397;53.576;9.746;2022-12-24T04:21:44;100558.63;;;4.32;100.00
4767;BME280;2397;53.576;9.746;2022-12-24T04:24:11;100555.97;;;4.29;100.00
4767;BME280;2397;53.576;9.746;2022-12-24T04:26:37;100564.41;;;4.26;100.00
4767;BME280;2397;53.576;9.746;2022-12-24T04:29:04;100567.09;;;4.29;100.00
4767;BME280;2397;53.576;9.746;2022-12-24T04:31:30;100561.91;;;4.28;100.00
4767;BME280;2397;53.576;9.746;2022-12-24T04:33:57;100566.22;;;4.29;100.00
4767;BME280;2397;53.576;9.746;2022-12-24T04:36:23;100565.31;;;4.27;100.00
4767;BME280;2397;53.576;9.746;2022-12-24T04:38:49;100579.91;;;4.29;100.00
4767;BME280;2397;53.576;9.746;2022-12-24T04:41:21;100579.72;;;4.25;100.00
4767;BME280;2397;53.576;9.746;2022-12-24T04:43:51;100577.16;;;4.25;100.00
4767;BME280;2397;53.576;9.746;2022-12-24T04:46:21;100577.22;;;4.26;100.00
4767;BME280;2397;53.576;9.746;2022-12-24T04:48:50;100568.63;;;4.24;100.00
4767;BME280;2397;53.576;9.746;2022-12-24T04:51:17;100569.53;;;4.26;100.00
4767;BME280;2397;53.576;9.746;2022-12-24T04:53:44;100559.44;;;4.31;100.00
4767;BME280;2397;53.576;9.746;2022-12-24T04:56:14;100555.28;;;4.33;100.00
4767;BME280;2397;53.576;9.746;2022-12-24T04:58:41;100558.53;;;4.29;100.00
4767;BME280;2397;53.576;9.746;2022-12-24T05:01:11;100562.69;;;4.25;100.00
4767;BME280;2397;53.576;9.746;2022-12-24T05:03:39;100560.94;;;4.24;100.00
4767;BME280;2397;53.576;9.746;2022-12-24T05:06:08;100561.03;;;4.27;100.00
4767;BME280;2397;53.576;9.746;2022-12-24T05:08:35;100561.97;;;4.29;100.00
4767;BME280;2397;53.576;9.746;2022-12-24T05:11:03;100563.66;;;4.29;100.00
4767;BME280;2397;53.576;9.746;2022-12-24T05:13:30;100564.50;;;4.29;100.00
4767;BME280;2397;53.576;9.746;2022-12-24T05:16:10;100558.53;;;4.29;100.00
4767;BME280;2397;53.576;9.746;2022-12-24T05:18:37;100561.69;;;4.21;100.00
4767;BME280;2397;53.576;9.746;2022-12-24T05:21:08;100564.25;;;4.21;100.00
4767;BME280;2397;53.576;9.746;2022-12-24T05:23:36;100566.81;;;4.21;100.00
4767;BME280;2397;53.576;9.746;2022-12-24T05:26:45;100577.06;;;4.21;100.00
4767;BME280;2397;53.576;9.746;2022-12-24T05:29:14;100578.00;;;4.24;100.00
4767;BME280;2397;53.576;9.746;2022-12-24T05:31:42;100578.91;;;4.26;100.00
4767;BME280;2397;53.576;9.746;2022-12-24T05:34:09;100580.78;;;4.30;100.00
4767;BME280;2397;53.576;9.746;2022-12-24T05:36:36;100578.16;;;4.28;100.00
4767;BME280;2397;53.576;9.746;2022-12-24T05:39:04;100584.38;;;4.35;100.00
4767;BME280;2397;53.576;9.746;2022-12-24T05:41:38;100587.63;;;4.31;100.00
4767;BME280;2397;53.576;9.746;2022-12-24T05:44:05;100588.47;;;4.30;100.00
4767;BME280;2397;53.576;9.746;2022-12-24T05:46:31;100594.34;;;4.27;100.00
4767;BME280;2397;53.576;9.746;2022-12-24T05:48:58;100588.19;;;4.22;100.00
4767;BME280;2397;53.576;9.746;2022-12-24T05:51:24;100589.06;;;4.22;100.00
4767;BME280;2397;53.576;9.746;2022-12-24T05:53:51;100590.72;;;4.20;100.00
4767;BME280;2397;53.576;9.746;2022-12-24T05:56:22;100596.81;;;4.24;100.00
4767;BME280;2397;53.576;9.746;2022-12-24T05:58:50;100587.19;;;4.18;100.00
4767;BME280;2397;53.576;9.746;2022-12-24T06:01:18;100596.00;;;4.25;100.00
4767;BME280;2397;53.576;9.746;2022-12-24T06:03:44;100593.44;;;4.25;100.00
4767;BME280;2397;53.576;9.746;2022-12-24T06:06:14;100602.78;;;4.25;100.00
4767;BME280;2397;53.576;9.746;2022-12-24T06:08:41;100604.50;;;4.24;100.00
4767;BME280;2397;53.576;9.746;2022-12-24T06:11:11;100604.53;;;4.26;100.00
4767;BME280;2397;53.576;9.746;2022-12-24T06:13:39;100600.22;;;4.25;100.00
4767;BME280;2397;53.576;9.746;2022-12-24T06:16:10;100599.41;;;4.26;100.00
4767;BME280;2397;53.576;9.746;2022-12-24T06:18:36;100601.00;;;4.22;100.00
4767;BME280;2397;53.576;9.746;2022-12-24T06:21:04;100602.78;;;4.25;100.00
4767;BME280;2397;53.576;9.746;2022-12-24T06:23:32;100605.19;;;4.20;100.00
4767;BME280;2397;53.576;9.746;2022-12-24T06:26:00;100602.56;;;4.18;100.00
4767;BME280;2397;53.576;9.746;2022-12-24T06:28:28;100602.34;;;4.12;100.00
4767;BME280;2397;53.576;9.746;2022-12-24T06:30:55;100604.31;;;4.19;100.00
4767;BME280;2397;53.576;9.746;2022-12-24T06:33:28;100607.00;;;4.22;100.00
4767;BME280;2397;53.576;9.746;2022-12-24T06:35:55;100607.59;;;4.15;100.00
4767;BME280;2397;53.576;9.746;2022-12-24T06:38:21;100609.13;;;4.10;100.00
4767;BME280;2397;53.576;9.746;2022-12-24T06:40:48;100612.72;;;4.15;100.00
4767;BME280;2397;53.576;9.746;2022-12-24T06:43:14;100621.91;;;4.10;100.00
4767;BME280;2397;53.576;9.746;2022-12-24T06:45:46;100621.97;;;4.12;100.00
4767;BME280;2397;53.576;9.746;2022-12-24T06:48:13;100627.22;;;4.15;100.00
4767;BME280;2397;53.576;9.746;2022-12-24T06:50:40;100628.03;;;4.14;100.00
4767;BME280;2397;53.576;9.746;2022-12-24T06:53:08;100628.03;;;4.14;100.00
4767;BME280;2397;53.576;9.746;2022-12-24T06:55:34;100625.06;;;4.03;100.00
4767;BME280;2397;53.576;9.746;2022-12-24T06:58:02;100628.53;;;4.05;100.00
4767;BME280;2397;53.576;9.746;2022-12-24T07:00:28;100628.47;;;4.03;100.00
4767;BME280;2397;53.576;9.746;2022-12-24T07:02:54;100646.41;;;4.03;100.00
4767;BME280;2397;53.576;9.746;2022-12-24T07:05:21;100649.59;;;3.98;100.00
4767;BME280;2397;53.576;9.746;2022-12-24T07:07:47;100649.72;;;4.01;100.00
4767;BME280;2397;53.576;9.746;2022-12-24T07:10:15;100668.44;;;3.98;100.00
4767;BME280;2397;53.576;9.746;2022-12-24T07:12:42;100673.50;;;3.97;100.00
4767;BME280;2397;53.576;9.746;2022-12-24T07:15:10;100682.03;;;3.97;100.00
4767;BME280;2397;53.576;9.746;2022-12-24T07:17:36;100688.84;;;3.97;100.00
4767;BME280;2397;53.576;9.746;2022-12-24T07:20:04;100683.97;;;4.03;100.00
4767;BME280;2397;53.576;9.746;2022-12-24T07:22:30;100680.50;;;4.02;100.00
4767;BME280;2397;53.576;9.746;2022-12-24T07:24:57;100686.47;;;4.01;100.00
4767;BME280;2397;53.576;9.746;2022-12-24T07:27:23;100677.84;;;3.99;100.00
4767;BME280;2397;53.576;9.746;2022-12-24T07:29:50;100686.31;;;3.97;100.00
4767;BME280;2397;53.576;9.746;2022-12-24T07:32:16;100688.84;;;3.97;100.00
4767;BME280;2397;53.576;9.746;2022-12-24T07:34:46;100697.41;;;3.97;100.00
4767;BME280;2397;53.576;9.746;2022-12-24T07:37:13;100701.59;;;3.95;100.00
4767;BME280;2397;53.576;9.746;2022-12-24T07:39:39;100706.91;;;4.00;100.00
4767;BME280;2397;53.576;9.746;2022-12-24T07:42:05;100708.56;;;3.99;100.00
4767;BME280;2397;53.576;9.746;2022-12-24T07:44:33;100711.19;;;4.01;100.00
4767;BME280;2397;53.576;9.746;2022-12-24T07:47:00;100717.28;;;4.03;100.00
4767;BME280;2397;53.576;9.746;2022-12-24T07:49:26;100721.44;;;4.01;100.00
4767;BME280;2397;53.576;9.746;2022-12-24T07:51:53;100723.06;;;3.99;100.00
4767;BME280;2397;53.576;9.746;2022-12-24T07:54:20;100726.00;;;4.08;100.00
4767;BME280;2397;53.576;9.746;2022-12-24T07:56:47;100729.38;;;4.07;100.00
4767;BME280;2397;53.576;9.746;2022-12-24T07:59:13;100735.31;;;4.06;100.00
4767;BME280;2397;53.576;9.746;2022-12-24T08:01:40;100737.81;;;4.04;100.00
4767;BME280;2397;53.576;9.746;2022-12-24T08:04:07;100734.44;;;4.05;100.00
4767;BME280;2397;53.576;9.746;2022-12-24T08:06:33;100734.91;;;3.95;100.00
4767;BME280;2397;53.576;9.746;2022-12-24T08:09:00;100739.13;;;3.95;100.00
4767;BME280;2397;53.576;9.746;2022-12-24T08:11:26;100746.81;;;3.95;100.00
4767;BME280;2397;53.576;9.746;2022-12-24T08:13:53;100746.69;;;3.92;100.00
4767;BME280;2397;53.576;9.746;2022-12-24T08:16:19;100741.50;;;3.90;100.00
4767;BME280;2397;53.576;9.746;2022-12-24T08:18:46;100742.38;;;3.91;100.00
4767;BME280;2397;53.576;9.746;2022-12-24T08:21:12;100743.22;;;3.90;100.00
4767;BME280;2397;53.576;9.746;2022-12-24T08:23:39;100730.69;;;3.97;100.00
4767;BME280;2397;53.576;9.746;2022-12-24T08:26:06;100739.50;;;4.04;100.00
4767;BME280;2397;53.576;9.746;2022-12-24T08:28:33;100746.38;;;4.05;100.00
4767;BME280;2397;53.576;9.746;2022-12-24T08:31:00;100756.56;;;4.03;100.00
4767;BME280;2397;53.576;9.746;2022-12-24T08:33:27;100760.81;;;4.03;100.00
4767;BME280;2397;53.576;9.746;2022-12-24T08:35:54;100772.66;;;4.01;100.00
4767;BME280;2397;53.576;9.746;2022-12-24T08:38:22;100764.81;;;3.96;100.00
4767;BME280;2397;53.576;9.746;2022-12-24T08:40:51;100767.53;;;4.01;100.00
4767;BME280;2397;53.576;9.746;2022-12-24T08:43:18;100766.63;;;3.99;100.00
4767;BME280;2397;53.576;9.746;2022-12-24T08:45:46;100767.31;;;3.95;100.00
4767;BME280;2397;53.576;9.746;2022-12-24T08:48:14;100764.84;;;3.98;100.00
4767;BME280;2397;53.576;9.746;2022-12-24T08:50:41;100776.81;;;3.97;100.00
4767;BME280;2397;53.576;9.746;2022-12-24T08:53:08;100774.31;;;3.99;100.00
4767;BME280;2397;53.576;9.746;2022-12-24T08:55:35;100781.06;;;3.97;100.00
4767;BME280;2397;53.576;9.746;2022-12-24T08:58:02;100785.41;;;3.99;100.00
4767;BME280;2397;53.576;9.746;2022-12-24T09:00:30;100793.94;;;3.98;100.00
4767;BME280;2397;53.576;9.746;2022-12-24T09:02:56;100790.59;;;4.01;100.00
4767;BME280;2397;53.576;9.746;2022-12-24T09:05:23;100791.69;;;4.06;100.00
4767;BME280;2397;53.576;9.746;2022-12-24T09:07:51;100804.53;;;4.08;100.00
4767;BME280;2397;53.576;9.746;2022-12-24T09:10:17;100794.19;;;4.04;100.00
4767;BME280;2397;53.576;9.746;2022-12-24T09:12:44;100799.34;;;4.06;100.00
4767;BME280;2397;53.576;9.746;2022-12-24T09:15:11;100815.53;;;4.05;100.00
4767;BME280;2397;53.576;9.746;2022-12-24T09:17:39;100826.50;;;4.02;100.00
4767;BME280;2397;53.576;9.746;2022-12-24T09:20:06;100827.28;;;4.00;100.00
4767;BME280;2397;53.576;9.746;2022-12-24T09:22:37;100825.47;;;3.97;100.00
4767;BME280;2397;53.576;9.746;2022-12-24T09:25:05;100814.28;;;3.95;100.00
4767;BME280;2397;53.576;9.746;2022-12-24T09:27:32;100823.91;;;4.01;100.00
4767;BME280;2397;53.576;9.746;2022-12-24T09:29:58;100822.28;;;4.03;100.00
4767;BME280;2397;53.576;9.746;2022-12-24T09:32:25;100832.53;;;4.03;100.00
4767;BME280;2397;53.576;9.746;2022-12-24T09:34:51;100839.50;;;4.07;100.00
4767;BME280;2397;53.576;9.746;2022-12-24T09:37:18;100850.91;;;4.14;100.00
4767;BME280;2397;53.576;9.746;2022-12-24T09:39:44;100845.97;;;4.18;100.00
4767;BME280;2397;53.576;9.746;2022-12-24T09:42:33;100861.41;;;4.20;100.00
4767;BME280;2397;53.576;9.746;2022-12-24T09:45:11;100848.53;;;4.18;100.00
4767;BME280;2397;53.576;9.746;2022-12-24T09:47:43;100856.16;;;4.17;100.00
4767;BME280;2397;53.576;9.746;2022-12-24T09:50:28;100864.75;;;4.19;100.00
4767;BME280;2397;53.576;9.746;2022-12-24T09:52:57;100863.03;;;4.18;100.00
4767;BME280;2397;53.576;9.746;2022-12-24T09:55:29;100870.78;;;4.19;100.00
4767;BME280;2397;53.576;9.746;2022-12-24T09:57:58;100869.69;;;4.14;100.00
4767;BME280;2397;53.576;9.746;2022-12-24T10:00:29;100873.22;;;4.16;100.00
4767;BME280;2397;53.576;9.746;2022-12-24T10:02:57;100869.69;;;4.14;100.00
4767;BME280;2397;53.576;9.746;2022-12-24T10:05:38;100873.78;;;4.09;100.00
4767;BME280;2397;53.576;9.746;2022-12-24T10:10:53;100872.38;;;4.17;100.00
4767;BME280;2397;53.576;9.746;2022-12-24T10:13:41;100876.59;;;4.15;100.00
4767;BME280;2397;53.576;9.746;2022-12-24T10:16:25;100880.13;;;4.19;100.00
4767;BME280;2397;53.576;9.746;2022-12-24T10:27:20;100890.91;;;4.31;100.00
4767;BME280;2397;53.576;9.746;2022-12-24T10:29:55;100887.28;;;4.26;100.00
4767;BME280;2397;53.576;9.746;2022-12-24T10:32:42;100894.28;;;4.30;100.00
4767;BME280;2397;53.576;9.746;2022-12-24T10:37:42;100906.66;;;4.40;100.00
4767;BME280;2397;53.576;9.746;2022-12-24T10:40:15;100907.41;;;4.38;100.00
4767;BME280;2397;53.576;9.746;2022-12-24T10:42:43;100902.28;;;4.38;100.00
4767;BME280;2397;53.576;9.746;2022-12-24T10:45:19;100909.84;;;4.35;100.00
4767;BME280;2397;53.576;9.746;2022-12-24T10:47:50;100905.19;;;4.46;100.00
4767;BME280;2397;53.576;9.746;2022-12-24T10:50:30;100907.94;;;4.50;100.00
4767;BME280;2397;53.576;9.746;2022-12-24T10:53:45;100904.53;;;4.51;100.00
4767;BME280;2397;53.576;9.746;2022-12-24T10:56:15;100918.38;;;4.55;100.00
4767;BME280;2397;53.576;9.746;2022-12-24T10:58:51;100917.88;;;4.64;100.00
4767;BME280;2397;53.576;9.746;2022-12-24T11:04:04;100930.81;;;4.67;100.00
4767;BME280;2397;53.576;9.746;2022-12-24T11:06:30;100919.28;;;4.57;100.00
4767;BME280;2397;53.576;9.746;2022-12-24T11:09:18;100916.53;;;4.52;100.00
4767;BME280;2397;53.576;9.746;2022-12-24T11:11:45;100921.00;;;4.56;100.00
4767;BME280;2397;53.576;9.746;2022-12-24T11:14:15;100917.88;;;4.64;100.00
4767;BME280;2397;53.576;9.746;2022-12-24T11:16:49;100922.31;;;4.68;100.00
4767;BME280;2397;53.576;9.746;2022-12-24T11:19:19;100913.78;;;4.69;100.00
4767;BME280;2397;53.576;9.746;2022-12-24T11:21:47;100909.41;;;4.66;100.00
4767;BME280;2397;53.576;9.746;2022-12-24T11:24:24;100921.59;;;4.72;100.00
4767;BME280;2397;53.576;9.746;2022-12-24T11:26:53;100919.38;;;4.80;100.00
4767;BME280;2397;53.576;9.746;2022-12-24T11:29:25;100925.34;;;4.80;100.00
4767;BME280;2397;53.576;9.746;2022-12-24T11:32:13;100910.88;;;4.82;100.00
4767;BME280;2397;53.576;9.746;2022-12-24T11:34:42;100909.56;;;4.92;100.00
4767;BME280;2397;53.576;9.746;2022-12-24T11:37:13;100900.78;;;5.08;100.00
4767;BME280;2397;53.576;9.746;2022-12-24T11:39:49;100909.63;;;5.16;100.00
4767;BME280;2397;53.576;9.746;2022-12-24T11:42:37;100909.06;;;5.23;100.00
4767;BME280;2397;53.576;9.746;2022-12-24T11:45:20;100905.00;;;5.28;100.00
4767;BME280;2397;53.576;9.746;2022-12-24T11:47:47;100912.91;;;5.35;100.00
4767;BME280;2397;53.576;9.746;2022-12-24T11:50:31;100917.25;;;5.37;100.00
4767;BME280;2397;53.576;9.746;2022-12-24T11:55:41;100919.13;;;5.41;100.00
4767;BME280;2397;53.576;9.746;2022-12-24T11:58:22;100919.13;;;5.41;100.00
4767;BME280;2397;53.576;9.746;2022-12-24T12:01:02;100925.28;;;5.45;100.00
4767;BME280;2397;53.576;9.746;2022-12-24T12:03:45;100913.47;;;5.50;100.00
4767;BME280;2397;53.576;9.746;2022-12-24T12:09:12;100913.81;;;5.84;100.00
4767;BME280;2397;53.576;9.746;2022-12-24T12:11:41;100915.78;;;5.91;100.00
4767;BME280;2397;53.576;9.746;2022-12-24T12:14:17;100911.63;;;5.94;100.00
4767;BME280;2397;53.576;9.746;2022-12-24T12:17:00;100920.16;;;5.93;100.00
4767;BME280;2397;53.576;9.746;2022-12-24T12:22:06;100920.63;;;6.06;100.00
4767;BME280;2397;53.576;9.746;2022-12-24T12:24:43;100921.66;;;6.11;100.00
4767;BME280;2397;53.576;9.746;2022-12-24T12:27:19;100932.22;;;6.20;100.00
4767;BME280;2397;53.576;9.746;2022-12-24T12:29:50;100928.34;;;6.31;100.00
4767;BME280;2397;53.576;9.746;2022-12-24T12:32:59;100916.53;;;6.37;100.00
4767;BME280;2397;53.576;9.746;2022-12-24T12:35:30;100935.25;;;6.32;100.00
4767;BME280;2397;53.576;9.746;2022-12-24T12:38:08;100937.75;;;6.31;100.00
4767;BME280;2397;53.576;9.746;2022-12-24T12:40:55;100937.75;;;6.31;100.00
4767;BME280;2397;53.576;9.746;2022-12-24T12:46:44;100944.59;;;6.30;100.00
4767;BME280;2397;53.576;9.746;2022-12-24T12:54:57;100936.06;;;6.31;100.00
4767;BME280;2397;53.576;9.746;2022-12-24T12:57:31;100932.66;;;6.32;100.00
4767;BME280;2397;53.576;9.746;2022-12-24T13:00:11;100940.28;;;6.29;100.00
4767;BME280;2397;53.576;9.746;2022-12-24T13:08:12;100942.91;;;6.31;100.00
4767;BME280;2397;53.576;9.746;2022-12-24T13:19:32;100967.81;;;6.33;100.00
4767;BME280;2397;53.576;9.746;2022-12-24T13:22:04;100976.38;;;6.32;100.00
4767;BME280;2397;53.576;9.746;2022-12-24T13:24:31;100985.00;;;6.35;100.00
4767;BME280;2397;53.576;9.746;2022-12-24T13:27:00;100983.34;;;6.35;100.00
4767;BME280;2397;53.576;9.746;2022-12-24T13:29:33;100986.66;;;6.32;100.00
4767;BME280;2397;53.576;9.746;2022-12-24T13:34:57;101001.03;;;6.27;100.00
4767;BME280;2397;53.576;9.746;2022-12-24T13:48:29;100998.91;;;6.40;100.00
4767;BME280;2397;53.576;9.746;2022-12-24T13:51:16;101004.06;;;6.40;100.00
4767;BME280;2397;53.576;9.746;2022-12-24T13:53:45;101006.06;;;6.48;100.00
4767;BME280;2397;53.576;9.746;2022-12-24T13:58:45;101015.47;;;6.48;100.00
4767;BME280;2397;53.576;9.746;2022-12-24T14:03:50;101013.03;;;6.53;100.00
4767;BME280;2397;53.576;9.746;2022-12-24T14:06:26;101020.91;;;6.57;100.00
4767;BME280;2397;53.576;9.746;2022-12-24T14:08:55;101012.38;;;6.58;100.00
4767;BME280;2397;53.576;9.746;2022-12-24T14:11:25;101022.06;;;6.65;100.00
4767;BME280;2397;53.576;9.746;2022-12-24T14:14:11;101019.53;;;6.67;100.00
4767;BME280;2397;53.576;9.746;2022-12-24T14:16:51;101021.31;;;6.68;100.00
4767;BME280;2397;53.576;9.746;2022-12-24T14:19:22;101022.16;;;6.68;100.00
4767;BME280;2397;53.576;9.746;2022-12-24T14:22:01;101020.50;;;6.71;100.00
4767;BME280;2397;53.576;9.746;2022-12-24T14:24:33;101025.56;;;6.67;100.00
4767;BME280;2397;53.576;9.746;2022-12-24T14:29:59;101035.63;;;6.61;100.00
4767;BME280;2397;53.576;9.746;2022-12-24T14:32:37;101029.47;;;6.56;100.00
4767;BME280;2397;53.576;9.746;2022-12-24T14:37:38;101043.25;;;6.58;100.00
4767;BME280;2397;53.576;9.746;2022-12-24T14:40:05;101039.75;;;6.56;100.00
4767;BME280;2397;53.576;9.746;2022-12-24T14:45:44;101046.44;;;6.51;100.00
4767;BME280;2397;53.576;9.746;2022-12-24T14:48:27;101054.25;;;6.54;100.00
4767;BME280;2397;53.576;9.746;2022-12-24T14:51:08;101052.53;;;6.53;100.00
4767;BME280;2397;53.576;9.746;2022-12-24T14:54:06;101056.56;;;6.46;100.00
4767;BME280;2397;53.576;9.746;2022-12-24T14:56:35;101053.03;;;6.43;100.00
4767;BME280;2397;53.576;9.746;2022-12-24T14:59:19;101060.78;;;6.44;100.00
4767;BME280;2397;53.576;9.746;2022-12-24T15:01:45;101059.06;;;6.45;100.00
4767;BME280;2397;53.576;9.746;2022-12-24T15:04:16;101066.13;;;6.50;100.00
4767;BME280;2397;53.576;9.746;2022-12-24T15:06:49;101067.06;;;6.53;100.00